Main page
METAR-TAF:

METAR-TAF

Airports :

McGregor Executive Airport

Waco, Texas, United States

latitude: 31-29N, longitude: 097-19W, elevation: 590 ft

Current weather observation

The report was made 11 minutes ago, at 09:35 UTC
Wind 6 mph from the South/Southwest
Temperature 73°F
Humidity 100%
Pressure 29.77 in. Hg
Visibility: 4 miles
Few clouds at a height of 2000 ft
mist

METAR: KPWG 190935Z AUTO 20005KT 4SM BR FEW020 23/23 A2977 RMK AO2

Time: 04:46 (09:46 UTC)


TAF: missing

Weather observations and forecasts of more than 4000 airports (METAR and TAF reports).

The available stations are represented by yellow and red dots on the map.

Hover mouse over dot to see the name of the station.

Then click to see weather observations and forecasts.

To change the map : click on the green buttons with a black cross to zoom in, on the green button with a dash to zoom out, or on the green arrows for adjacent maps.


METAR-TAF: